Terminal Aerodrome Forecast
Issued by NWS Louisville, KY

Home | Current Version | Previous Version | Text Only | Print | Product List | Glossary On
Versions: 1 2 3 4 5 6 7 8 9 10 11 12 13 14 15 16 17
000
FTUS43 KLMK 271700 RRA
TAFLEX
TAF
KLEX 271743Z 2718/2818 16010KT P6SM VCTS BKN025 BKN035CB
     FM272000 25015G22KT P6SM VCTS BKN040CB
     FM280000 32008KT P6SM SCT050=

USA.gov is the U.S. government's official web portal to all federal, state and local government web resources and services.